Time;durP1;ratioP1;P1;durP2;ratioP2;P2;SDS_P1;SDS_P2;PMS_P1;PMS_P2;Temp;Humidity;BMP_temperature;BMP_pressure;BME280_temperature;BME280_humidity;BME280_pressure;Samples;Min_cycle;Max_cycle;Signal;HPM_P1;HPM_P2
2023/07/28 00:03:20;;;;;;;;;;;18.30;96.90;;;;;;5067371;28;20426;-69
2023/07/28 00:05:46;;;;;;;;;;;18.40;96.70;;;;;;5081915;28;20369;-69
2023/07/28 00:08:11;;;;;;;;;;;18.40;96.70;;;;;;5091362;28;19908;-69
2023/07/28 00:10:41;;;;;;;;;;;18.30;96.80;;;;;;5091645;28;19909;-69
2023/07/28 00:13:06;;;;;;;;;;;18.30;97.00;;;;;;5091187;28;19916;-69
2023/07/28 00:15:32;;;;;;;;;;;18.30;97.60;;;;;;5079448;28;19958;-69
2023/07/28 00:17:59;;;;;;;;;;;18.30;97.10;;;;;;5111745;28;19961;-69
2023/07/28 00:20:25;;;;;;;;;;;18.30;97.10;;;;;;5111525;28;19916;-69
2023/07/28 00:22:50;;;;;;;;;;;18.30;97.00;;;;;;5111787;28;19927;-69
2023/07/28 00:25:16;;;;;;;;;;;18.30;96.90;;;;;;5106100;28;19926;-69
2023/07/28 00:27:41;;;;;;;;;;;18.30;97.10;;;;;;5091218;28;19912;-69
2023/07/28 00:30:07;;;;;;;;;;;18.30;96.80;;;;;;5091221;28;19942;-69
2023/07/28 00:32:32;;;;;;;;;;;18.30;97.20;;;;;;5091026;28;19912;-69
2023/07/28 00:34:58;;;;;;;;;;;18.30;97.10;;;;;;5090941;28;19923;-69
2023/07/28 00:37:23;;;;;;;;;;;18.30;97.20;;;;;;5091045;28;19916;-69
2023/07/28 00:39:49;;;;;;;;;;;18.30;97.20;;;;;;5090918;28;19912;-69
2023/07/28 00:42:15;;;;;;;;;;;18.30;97.20;;;;;;5083331;28;19908;-69
2023/07/28 00:44:40;;;;;;;;;;;18.30;97.30;;;;;;5104594;28;19920;-69
2023/07/28 00:47:06;;;;;;;;;;;18.30;97.10;;;;;;5090533;28;20404;-69
2023/07/28 00:49:31;;;;;;;;;;;18.30;97.00;;;;;;5090504;28;20011;-69
2023/07/28 00:51:57;;;;;;;;;;;18.30;97.10;;;;;;5090805;28;19912;-69
2023/07/28 00:54:23;;;;;;;;;;;18.30;97.40;;;;;;5096878;28;19916;-69
2023/07/28 00:56:49;;;;;;;;;;;18.30;97.10;;;;;;5109959;28;19922;-69
2023/07/28 00:59:14;;;;;;;;;;;18.30;96.90;;;;;;5097275;28;19912;-69
2023/07/28 01:01:40;;;;;;;;;;;18.30;97.00;;;;;;5079927;28;19916;-69
2023/07/28 01:04:06;;;;;;;;;;;18.30;97.10;;;;;;5078734;28;19916;-69
2023/07/28 01:06:34;;;;;;;;;;;18.30;97.10;;;;;;5066443;28;19915;-69
2023/07/28 01:09:04;;;;;;;;;;;18.30;97.10;;;;;;5090024;28;20407;-69
2023/07/28 01:11:30;;;;;;;;;;;18.20;97.40;;;;;;5087184;28;19951;-69
2023/07/28 01:13:55;;;;;;;;;;;18.20;97.00;;;;;;5089872;28;19959;-69
2023/07/28 01:16:21;;;;;;;;;;;18.20;96.80;;;;;;5076744;28;20260;-69
2023/07/28 01:18:47;;;;;;;;;;;18.20;96.60;;;;;;5089596;28;19916;-70
2023/07/28 01:21:15;;;;;;;;;;;18.20;97.10;;;;;;5084686;28;20476;-69
2023/07/28 01:24:19;;;;;;;;;;;18.20;97.10;;;;;;5091082;28;20012;-69
2023/07/28 01:26:45;;;;;;;;;;;18.20;97.30;;;;;;5003725;28;19925;-69
2023/07/28 01:29:12;;;;;;;;;;;18.20;96.90;;;;;;5035607;28;19913;-69
2023/07/28 01:31:39;;;;;;;;;;;18.20;96.80;;;;;;5036136;28;19946;-69
2023/07/28 01:34:04;;;;;;;;;;;18.20;96.80;;;;;;5089665;28;19920;-70
2023/07/28 01:36:30;;;;;;;;;;;18.20;96.90;;;;;;5086060;28;20266;-69
2023/07/28 01:38:55;;;;;;;;;;;18.20;97.00;;;;;;5089639;28;19934;-69
2023/07/28 01:41:21;;;;;;;;;;;18.20;96.90;;;;;;5086238;28;19920;-69
2023/07/28 01:43:46;;;;;;;;;;;18.20;97.00;;;;;;5088683;28;20002;-69
2023/07/28 01:46:12;;;;;;;;;;;18.20;97.00;;;;;;5087787;28;20270;-69
2023/07/28 01:48:37;;;;;;;;;;;18.20;97.30;;;;;;5089050;28;19912;-69
2023/07/28 01:51:03;;;;;;;;;;;18.20;97.10;;;;;;5088527;28;19933;-69
2023/07/28 01:53:28;;;;;;;;;;;18.20;97.20;;;;;;5089381;28;19916;-69
2023/07/28 01:55:54;;;;;;;;;;;18.20;97.20;;;;;;5071829;28;19912;-69
2023/07/28 01:58:19;;;;;;;;;;;18.20;97.30;;;;;;5089005;28;19985;-69
2023/07/28 02:00:46;;;;;;;;;;;18.20;97.20;;;;;;5086405;28;19951;-69
2023/07/28 02:03:11;;;;;;;;;;;18.20;97.10;;;;;;5088739;28;19980;-69
2023/07/28 02:05:37;;;;;;;;;;;18.20;97.00;;;;;;5085134;28;20558;-69
2023/07/28 02:08:02;;;;;;;;;;;18.20;97.10;;;;;;5087200;28;20305;-69
2023/07/28 02:10:28;;;;;;;;;;;18.20;97.10;;;;;;5088100;28;19953;-69
2023/07/28 02:12:54;;;;;;;;;;;18.20;97.20;;;;;;5088804;28;20296;-70
2023/07/28 02:15:19;;;;;;;;;;;18.20;97.00;;;;;;5075308;28;19916;-69
2023/07/28 02:17:45;;;;;;;;;;;18.20;97.10;;;;;;5088731;28;20460;-69
2023/07/28 02:20:12;;;;;;;;;;;18.20;97.10;;;;;;5086603;28;19913;-70
2023/07/28 02:22:44;;;;;;;;;;;18.20;97.20;;;;;;5087977;28;19916;-69
2023/07/28 02:25:10;;;;;;;;;;;18.20;97.00;;;;;;5094174;28;20373;-69
2023/07/28 02:27:36;;;;;;;;;;;18.20;97.20;;;;;;5069220;28;19912;-69
2023/07/28 02:30:02;;;;;;;;;;;18.20;97.10;;;;;;5087578;28;19919;-69
2023/07/28 02:32:28;;;;;;;;;;;18.20;97.20;;;;;;5086236;28;20265;-69
2023/07/28 02:34:54;;;;;;;;;;;18.20;97.10;;;;;;5087621;28;19962;-69
2023/07/28 02:37:20;;;;;;;;;;;18.20;97.10;;;;;;5068057;28;19960;-69
2023/07/28 02:39:46;;;;;;;;;;;18.20;97.40;;;;;;5088188;28;19912;-69
2023/07/28 02:42:12;;;;;;;;;;;18.20;97.20;;;;;;5094755;28;19958;-69
2023/07/28 02:44:38;;;;;;;;;;;18.20;97.10;;;;;;5093492;28;19952;-69
2023/07/28 02:47:04;;;;;;;;;;;18.20;97.20;;;;;;5084813;28;19954;-69
2023/07/28 02:49:29;;;;;;;;;;;18.20;97.10;;;;;;5088421;28;19919;-69
2023/07/28 02:51:54;;;;;;;;;;;18.20;97.20;;;;;;5084778;28;20699;-69
2023/07/28 02:54:21;;;;;;;;;;;18.20;97.20;;;;;;5090681;28;19923;-69
2023/07/28 02:56:46;;;;;;;;;;;18.20;97.00;;;;;;5087043;28;19919;-69
2023/07/28 02:59:12;;;;;;;;;;;18.20;97.00;;;;;;5088559;28;20357;-69
2023/07/28 03:01:37;;;;;;;;;;;18.20;97.10;;;;;;5084999;28;19912;-69
2023/07/28 03:04:03;;;;;;;;;;;18.20;97.30;;;;;;5088200;28;19947;-69
2023/07/28 03:06:28;;;;;;;;;;;18.20;97.20;;;;;;5065142;28;19989;-69
2023/07/28 03:08:54;;;;;;;;;;;18.20;97.50;;;;;;5088397;28;20042;-69
2023/07/28 03:11:20;;;;;;;;;;;18.20;97.30;;;;;;5084856;28;20265;-69
2023/07/28 03:13:45;;;;;;;;;;;18.20;97.20;;;;;;5094886;28;19995;-69
2023/07/28 03:16:11;;;;;;;;;;;18.20;97.10;;;;;;5084894;28;19912;-69
2023/07/28 03:18:36;;;;;;;;;;;18.10;97.30;;;;;;5088156;28;19912;-70
2023/07/28 03:21:02;;;;;;;;;;;18.10;97.30;;;;;;5085039;28;20357;-69
2023/07/28 03:23:27;;;;;;;;;;;18.10;97.10;;;;;;5087829;28;19912;-69
2023/07/28 03:25:53;;;;;;;;;;;18.20;97.00;;;;;;5086648;28;19926;-69
2023/07/28 03:28:18;;;;;;;;;;;18.20;97.20;;;;;;5087440;28;20403;-69
2023/07/28 03:30:44;;;;;;;;;;;18.20;97.10;;;;;;5089444;28;20373;-69
2023/07/28 03:33:09;;;;;;;;;;;18.10;97.10;;;;;;5087657;28;19916;-69
2023/07/28 03:35:35;;;;;;;;;;;18.20;97.10;;;;;;5084488;28;19966;-69
2023/07/28 03:38:01;;;;;;;;;;;18.10;97.20;;;;;;5068614;28;20619;-69
2023/07/28 03:40:26;;;;;;;;;;;18.20;97.10;;;;;;5086643;28;20341;-69
2023/07/28 03:42:52;;;;;;;;;;;18.10;97.00;;;;;;5091406;28;19912;-69
2023/07/28 03:45:18;;;;;;;;;;;18.10;96.90;;;;;;5088625;28;19923;-69
2023/07/28 03:47:43;;;;;;;;;;;18.10;97.00;;;;;;5093875;28;20713;-69
2023/07/28 03:50:09;;;;;;;;;;;18.20;97.10;;;;;;5092630;28;19920;-69
2023/07/28 03:52:34;;;;;;;;;;;18.10;97.00;;;;;;5090481;28;20258;-69
2023/07/28 03:55:00;;;;;;;;;;;18.10;96.90;;;;;;5093027;28;19916;-69
2023/07/28 03:57:25;;;;;;;;;;;18.10;96.90;;;;;;5088590;28;19951;-69
2023/07/28 03:59:51;;;;;;;;;;;18.10;97.40;;;;;;5090715;28;20762;-69
2023/07/28 04:02:16;;;;;;;;;;;18.10;97.30;;;;;;5086162;28;19916;-69
2023/07/28 04:04:42;;;;;;;;;;;18.20;97.20;;;;;;5081461;28;19923;-69
2023/07/28 04:07:07;;;;;;;;;;;18.20;97.30;;;;;;5087178;28;20254;-69
2023/07/28 04:09:33;;;;;;;;;;;18.10;97.30;;;;;;5073381;28;20014;-69
2023/07/28 04:11:58;;;;;;;;;;;18.20;97.20;;;;;;5091420;28;19919;-69
2023/07/28 04:14:24;;;;;;;;;;;18.20;97.10;;;;;;5111993;28;19989;-69
2023/07/28 04:16:49;;;;;;;;;;;18.20;97.10;;;;;;5111097;28;20444;-69
2023/07/28 04:19:15;;;;;;;;;;;18.10;97.00;;;;;;5111884;28;19908;-69
2023/07/28 04:21:40;;;;;;;;;;;18.10;97.00;;;;;;5111478;28;19918;-69
2023/07/28 04:24:07;;;;;;;;;;;18.10;97.00;;;;;;5097892;28;19915;-66
2023/07/28 04:26:32;;;;;;;;;;;18.20;97.20;;;;;;5110722;28;20403;-66
2023/07/28 04:28:58;;;;;;;;;;;18.20;97.00;;;;;;5111273;28;19916;-66
2023/07/28 04:31:23;;;;;;;;;;;18.20;97.10;;;;;;5109146;28;19911;-66
2023/07/28 04:33:49;;;;;;;;;;;18.20;97.00;;;;;;5075442;28;19916;-66
2023/07/28 04:36:14;;;;;;;;;;;18.20;97.10;;;;;;5090428;28;19920;-66
2023/07/28 04:38:40;;;;;;;;;;;18.20;97.30;;;;;;5090554;28;20505;-66
2023/07/28 04:41:05;;;;;;;;;;;18.20;97.10;;;;;;5090352;28;19999;-66
2023/07/28 04:43:31;;;;;;;;;;;18.20;97.20;;;;;;5090889;28;19939;-66
2023/07/28 04:45:56;;;;;;;;;;;18.20;97.20;;;;;;5089701;28;20253;-66
2023/07/28 04:48:23;;;;;;;;;;;18.20;97.10;;;;;;5090787;28;19943;-66
2023/07/28 04:50:48;;;;;;;;;;;18.20;97.30;;;;;;5089903;28;19913;-66
2023/07/28 04:53:14;;;;;;;;;;;18.20;97.70;;;;;;5089746;28;19912;-66
2023/07/28 04:55:39;;;;;;;;;;;18.20;97.50;;;;;;5100394;28;19919;-66
2023/07/28 04:58:05;;;;;;;;;;;18.20;97.40;;;;;;5090321;28;19912;-66
2023/07/28 05:00:30;;;;;;;;;;;18.20;97.10;;;;;;5091659;28;19912;-66
2023/07/28 05:02:56;;;;;;;;;;;18.20;97.20;;;;;;5090306;28;19926;-66
2023/07/28 05:05:21;;;;;;;;;;;18.30;97.00;;;;;;5089868;28;19959;-66
2023/07/28 05:07:47;;;;;;;;;;;18.30;97.10;;;;;;5090530;28;19999;-66
2023/07/28 05:10:12;;;;;;;;;;;18.20;97.10;;;;;;5090725;28;20529;-66
2023/07/28 05:12:38;;;;;;;;;;;18.30;97.10;;;;;;5072210;28;19916;-66
2023/07/28 05:15:04;;;;;;;;;;;18.30;97.10;;;;;;5095074;28;19919;-66
2023/07/28 05:17:30;;;;;;;;;;;18.30;97.10;;;;;;5091837;28;19916;-66
2023/07/28 05:19:55;;;;;;;;;;;18.30;97.10;;;;;;5110477;28;20441;-66
2023/07/28 05:22:21;;;;;;;;;;;18.30;97.10;;;;;;5110920;28;19911;-66
2023/07/28 05:24:46;;;;;;;;;;;18.30;97.00;;;;;;5109857;28;19968;-66
2023/07/28 05:27:12;;;;;;;;;;;18.30;97.10;;;;;;5110313;28;19942;-66
2023/07/28 05:29:38;;;;;;;;;;;18.30;96.90;;;;;;5110489;28;20403;-66
2023/07/28 05:32:04;;;;;;;;;;;18.30;96.90;;;;;;5077866;28;19966;-66
2023/07/28 05:34:29;;;;;;;;;;;18.30;97.10;;;;;;5079541;28;20288;-66
2023/07/28 05:36:55;;;;;;;;;;;18.40;97.10;;;;;;5089581;28;20017;-66
2023/07/28 05:39:21;;;;;;;;;;;18.40;97.10;;;;;;5089583;28;19912;-66
2023/07/28 05:41:46;;;;;;;;;;;18.40;97.00;;;;;;5089298;28;19916;-66
2023/07/28 05:44:12;;;;;;;;;;;18.40;96.90;;;;;;5089738;28;19916;-66
2023/07/28 05:46:37;;;;;;;;;;;18.40;96.90;;;;;;5071028;28;20257;-66
2023/07/28 05:49:03;;;;;;;;;;;18.50;97.20;;;;;;5090799;28;19986;-66
2023/07/28 05:51:28;;;;;;;;;;;18.50;96.90;;;;;;5089761;28;19912;-66
2023/07/28 05:53:54;;;;;;;;;;;18.50;96.80;;;;;;5092078;28;20019;-66
2023/07/28 05:56:19;;;;;;;;;;;18.50;97.10;;;;;;5096868;28;19911;-66
2023/07/28 05:58:46;;;;;;;;;;;18.50;97.10;;;;;;5092132;28;20002;-66
2023/07/28 06:01:11;;;;;;;;;;;18.50;97.20;;;;;;5089467;28;19912;-66
2023/07/28 06:03:37;;;;;;;;;;;18.50;97.20;;;;;;5088960;28;20285;-66
2023/07/28 06:06:02;;;;;;;;;;;18.60;97.20;;;;;;5089001;28;20475;-66
2023/07/28 06:08:28;;;;;;;;;;;18.50;97.10;;;;;;5089487;28;19912;-66
2023/07/28 06:10:54;;;;;;;;;;;18.50;97.10;;;;;;5089355;28;19919;-66
2023/07/28 06:13:19;;;;;;;;;;;18.60;97.20;;;;;;5089323;28;19947;-66
2023/07/28 06:15:45;;;;;;;;;;;18.60;97.00;;;;;;5089164;28;20003;-66
2023/07/28 06:18:10;;;;;;;;;;;18.60;97.20;;;;;;5095853;28;20007;-66
2023/07/28 06:20:36;;;;;;;;;;;18.60;97.10;;;;;;5109432;28;19912;-66
2023/07/28 06:23:01;;;;;;;;;;;18.60;97.10;;;;;;5090871;28;20295;-66
2023/07/28 06:25:27;;;;;;;;;;;18.60;97.20;;;;;;5108509;28;19968;-66
2023/07/28 06:27:52;;;;;;;;;;;18.60;97.10;;;;;;5109185;28;20268;-66
2023/07/28 06:30:18;;;;;;;;;;;18.60;97.10;;;;;;5109170;28;19914;-66
2023/07/28 06:32:43;;;;;;;;;;;18.60;97.30;;;;;;5108159;28;19912;-66
2023/07/28 06:35:09;;;;;;;;;;;18.60;97.40;;;;;;5093011;28;20265;-66
2023/07/28 06:37:38;;;;;;;;;;;18.60;97.40;;;;;;5088497;28;19908;-66
2023/07/28 06:40:08;;;;;;;;;;;18.60;97.30;;;;;;5088823;28;19912;-66
2023/07/28 06:42:34;;;;;;;;;;;18.60;97.50;;;;;;5087853;28;19954;-66
2023/07/28 06:44:59;;;;;;;;;;;18.60;97.40;;;;;;5088822;28;19912;-66
2023/07/28 06:47:25;;;;;;;;;;;18.60;97.10;;;;;;5088720;28;20025;-66
2023/07/28 06:49:50;;;;;;;;;;;18.70;97.10;;;;;;5106793;28;19922;-66
2023/07/28 06:52:16;;;;;;;;;;;18.70;97.10;;;;;;5090069;28;19916;-66
2023/07/28 06:54:41;;;;;;;;;;;18.70;97.00;;;;;;5097681;28;19912;-66
2023/07/28 06:57:07;;;;;;;;;;;18.70;96.80;;;;;;5088132;28;19954;-66
2023/07/28 06:59:33;;;;;;;;;;;18.70;97.00;;;;;;5088504;28;19911;-66
2023/07/28 07:01:58;;;;;;;;;;;18.80;97.00;;;;;;5088444;28;19916;-66
2023/07/28 07:04:24;;;;;;;;;;;18.80;97.20;;;;;;5088620;28;19977;-66
2023/07/28 07:06:49;;;;;;;;;;;18.80;97.10;;;;;;5088156;28;19981;-66
2023/07/28 07:09:15;;;;;;;;;;;18.80;97.50;;;;;;5088216;28;19912;-66
2023/07/28 07:11:40;;;;;;;;;;;18.80;97.30;;;;;;5088282;28;20497;-66
2023/07/28 07:14:06;;;;;;;;;;;18.80;97.10;;;;;;5088261;28;19916;-66
2023/07/28 07:16:32;;;;;;;;;;;18.80;97.00;;;;;;5091745;28;20641;-66
2023/07/28 07:18:57;;;;;;;;;;;18.80;96.90;;;;;;5074285;28;19916;-66
2023/07/28 07:21:23;;;;;;;;;;;18.80;96.90;;;;;;5093657;28;19927;-66
2023/07/28 07:23:49;;;;;;;;;;;18.80;97.00;;;;;;5090807;28;20372;-66
2023/07/28 07:26:14;;;;;;;;;;;18.90;97.00;;;;;;5089183;28;20357;-66
2023/07/28 07:28:40;;;;;;;;;;;18.80;97.00;;;;;;5092269;28;20297;-66
2023/07/28 07:31:11;;;;;;;;;;;18.80;97.10;;;;;;5074063;28;19912;-66
2023/07/28 07:33:37;;;;;;;;;;;18.80;96.90;;;;;;5092066;28;19961;-66
2023/07/28 07:36:03;;;;;;;;;;;18.80;96.90;;;;;;5091454;28;20320;-66
2023/07/28 07:38:28;;;;;;;;;;;18.90;97.20;;;;;;5103246;28;19915;-66
2023/07/28 07:40:53;;;;;;;;;;;18.90;97.10;;;;;;5111928;28;19922;-66
2023/07/28 07:43:20;;;;;;;;;;;18.90;97.60;;;;;;5111507;28;20580;-66
2023/07/28 07:45:46;;;;;;;;;;;18.90;97.50;;;;;;5112489;28;19954;-66
2023/07/28 07:48:12;;;;;;;;;;;18.90;97.30;;;;;;5106647;28;19916;-66
2023/07/28 07:50:38;;;;;;;;;;;18.90;97.50;;;;;;5091949;28;19912;-66
2023/07/28 07:53:03;;;;;;;;;;;19.00;97.60;;;;;;5073712;28;19962;-66
2023/07/28 07:55:30;;;;;;;;;;;19.00;97.60;;;;;;5086402;28;20365;-66
2023/07/28 07:57:56;;;;;;;;;;;19.00;97.40;;;;;;5091421;28;19912;-66
2023/07/28 08:00:21;;;;;;;;;;;19.10;97.70;;;;;;5097664;28;19938;-66
2023/07/28 08:02:47;;;;;;;;;;;19.10;97.70;;;;;;5073307;28;19915;-66
2023/07/28 08:05:12;;;;;;;;;;;19.10;97.60;;;;;;5091472;28;19912;-66
2023/07/28 08:07:38;;;;;;;;;;;19.20;97.70;;;;;;5101102;28;19947;-66
2023/07/28 08:10:04;;;;;;;;;;;19.10;97.40;;;;;;5093376;28;19996;-66
2023/07/28 08:12:29;;;;;;;;;;;19.20;97.10;;;;;;5111872;28;19915;-66
2023/07/28 08:14:55;;;;;;;;;;;19.20;97.40;;;;;;5111860;28;19965;-66
2023/07/28 08:17:20;;;;;;;;;;;19.20;97.50;;;;;;5111722;28;19912;-66
2023/07/28 08:19:46;;;;;;;;;;;19.30;97.60;;;;;;5111836;28;19912;-66
2023/07/28 08:22:12;;;;;;;;;;;19.30;98.00;;;;;;5107502;28;19919;-66
2023/07/28 08:24:37;;;;;;;;;;;19.50;98.20;;;;;;5102074;28;19920;-66
2023/07/28 08:27:03;;;;;;;;;;;19.50;97.60;;;;;;5090787;28;19908;-66
2023/07/28 08:29:29;;;;;;;;;;;19.60;97.70;;;;;;5091168;28;20386;-66
2023/07/28 08:31:54;;;;;;;;;;;19.60;97.70;;;;;;5097744;28;19923;-66
2023/07/28 08:34:19;;;;;;;;;;;19.60;97.50;;;;;;5061259;28;20410;-66
2023/07/28 08:36:45;;;;;;;;;;;19.60;97.20;;;;;;5090590;28;19912;-66
2023/07/28 08:39:11;;;;;;;;;;;19.70;97.80;;;;;;5091308;28;19919;-66
2023/07/28 08:41:37;;;;;;;;;;;19.70;97.50;;;;;;5090946;28;19912;-66
2023/07/28 08:44:03;;;;;;;;;;;19.70;97.30;;;;;;5092784;28;19989;-66
2023/07/28 08:46:28;;;;;;;;;;;19.70;97.40;;;;;;5092710;28;19922;-66
2023/07/28 08:48:54;;;;;;;;;;;19.70;97.80;;;;;;5110929;28;19919;-66
2023/07/28 08:51:22;;;;;;;;;;;19.70;97.60;;;;;;5111247;28;19907;-66
2023/07/28 08:53:48;;;;;;;;;;;19.70;97.60;;;;;;5108356;28;20391;-66
2023/07/28 08:56:13;;;;;;;;;;;19.70;97.50;;;;;;5089583;28;19951;-66
2023/07/28 08:58:40;;;;;;;;;;;19.70;97.60;;;;;;5090423;28;19912;-66
2023/07/28 09:01:05;;;;;;;;;;;19.80;97.50;;;;;;5091615;28;20285;-66
2023/07/28 09:03:33;;;;;;;;;;;19.80;97.40;;;;;;5090498;28;19919;-66
2023/07/28 09:06:02;;;;;;;;;;;19.90;97.40;;;;;;5089893;28;19919;-66
2023/07/28 09:08:28;;;;;;;;;;;19.90;97.50;;;;;;5090543;28;19909;-66
2023/07/28 09:10:54;;;;;;;;;;;19.90;97.50;;;;;;5090734;28;19951;-66
2023/07/28 09:13:20;;;;;;;;;;;19.90;97.90;;;;;;5090327;28;19923;-66
2023/07/28 09:15:45;;;;;;;;;;;19.90;97.70;;;;;;5090144;28;19908;-66
2023/07/28 09:18:12;;;;;;;;;;;20.00;97.60;;;;;;5104167;28;19915;-66
2023/07/28 09:20:38;;;;;;;;;;;20.00;97.70;;;;;;5110804;28;20017;-66
2023/07/28 09:23:05;;;;;;;;;;;20.10;97.50;;;;;;5110436;28;19915;-66
2023/07/28 09:25:31;;;;;;;;;;;20.10;97.30;;;;;;5093231;28;20003;-66
2023/07/28 09:27:57;;;;;;;;;;;20.10;97.20;;;;;;5089909;28;19935;-66
2023/07/28 09:30:23;;;;;;;;;;;20.10;97.40;;;;;;5090056;28;20281;-66
2023/07/28 09:32:49;;;;;;;;;;;20.20;97.70;;;;;;5092300;28;19915;-66
2023/07/28 09:35:15;;;;;;;;;;;20.20;97.50;;;;;;5093493;28;19922;-66
2023/07/28 09:37:42;;;;;;;;;;;20.30;97.50;;;;;;5089094;28;19985;-66
2023/07/28 09:40:11;;;;;;;;;;;20.30;97.60;;;;;;5105320;28;20351;-66
2023/07/28 09:42:41;;;;;;;;;;;20.30;97.50;;;;;;5093052;28;19916;-66
2023/07/28 09:45:07;;;;;;;;;;;20.30;97.50;;;;;;5086559;28;19927;-66
2023/07/28 09:47:35;;;;;;;;;;;20.30;97.40;;;;;;5088601;28;19947;-66
2023/07/28 09:50:03;;;;;;;;;;;20.40;97.30;;;;;;5089084;28;19922;-66
2023/07/28 09:52:31;;;;;;;;;;;20.40;97.90;;;;;;5072449;28;19916;-66
2023/07/28 09:54:58;;;;;;;;;;;20.40;97.10;;;;;;5097488;28;19926;-66
2023/07/28 09:57:25;;;;;;;;;;;20.50;97.50;;;;;;5088557;28;20077;-66
2023/07/28 09:59:54;;;;;;;;;;;20.60;97.50;;;;;;5089812;28;19912;-66
2023/07/28 10:02:19;;;;;;;;;;;20.70;98.20;;;;;;5084304;28;19966;-66
2023/07/28 10:04:45;;;;;;;;;;;20.70;98.00;;;;;;5074373;28;19956;-66
2023/07/28 10:07:11;;;;;;;;;;;20.80;97.50;;;;;;5088906;28;19938;-66
2023/07/28 10:09:37;;;;;;;;;;;20.80;97.40;;;;;;5095872;28;19966;-66
2023/07/28 10:12:03;;;;;;;;;;;20.90;97.20;;;;;;5095003;28;20446;-66
2023/07/28 10:14:32;;;;;;;;;;;20.90;97.50;;;;;;5089202;28;19955;-66
2023/07/28 10:16:58;;;;;;;;;;;20.90;97.50;;;;;;5088331;28;19912;-66
2023/07/28 10:19:24;;;;;;;;;;;20.90;97.60;;;;;;5094286;28;19915;-66
2023/07/28 10:21:58;;;;;;;;;;;20.90;97.00;;;;;;5091555;28;19913;-66
2023/07/28 10:24:43;;;;;;;;;;;21.00;98.00;;;;;;5083945;28;19927;-66
2023/07/28 10:27:09;;;;;;;;;;;21.00;97.20;;;;;;5087887;28;20683;-66
2023/07/28 10:29:37;;;;;;;;;;;21.10;96.90;;;;;;5088599;28;19912;-66
2023/07/28 10:32:02;;;;;;;;;;;21.20;97.40;;;;;;5088604;28;19919;-66
2023/07/28 10:34:28;;;;;;;;;;;21.20;97.00;;;;;;5074384;28;20373;-66
2023/07/28 10:37:00;;;;;;;;;;;21.20;97.10;;;;;;5088276;28;20000;-66
2023/07/28 10:39:26;;;;;;;;;;;21.20;97.10;;;;;;5084682;28;20654;-66
2023/07/28 10:42:03;;;;;;;;;;;21.30;97.40;;;;;;5079193;28;19961;-66
2023/07/28 10:44:29;;;;;;;;;;;21.30;96.80;;;;;;5086638;28;19978;-66
2023/07/28 10:46:55;;;;;;;;;;;21.30;97.50;;;;;;5080941;28;19908;-66
2023/07/28 10:49:20;;;;;;;;;;;21.40;97.50;;;;;;5076971;28;19915;-66
2023/07/28 10:51:46;;;;;;;;;;;21.50;97.70;;;;;;5107557;28;19911;-66
2023/07/28 10:54:15;;;;;;;;;;;21.50;96.70;;;;;;5102090;28;19916;-66
2023/07/28 10:56:41;;;;;;;;;;;21.60;96.90;;;;;;5087319;28;19912;-66
2023/07/28 10:59:06;;;;;;;;;;;21.60;96.90;;;;;;5081457;28;19919;-66
2023/07/28 11:01:36;;;;;;;;;;;21.70;96.90;;;;;;5069509;28;19974;-66
2023/07/28 11:04:09;;;;;;;;;;;21.70;96.70;;;;;;5087510;28;19919;-66
2023/07/28 11:06:35;;;;;;;;;;;21.70;96.60;;;;;;5098647;28;19923;-66
2023/07/28 11:09:00;;;;;;;;;;;21.80;96.90;;;;;;5107929;28;19911;-66
2023/07/28 11:11:27;;;;;;;;;;;21.90;96.80;;;;;;5069500;28;19912;-66
2023/07/28 11:13:53;;;;;;;;;;;21.90;96.30;;;;;;5067366;28;19941;-66
2023/07/28 11:16:19;;;;;;;;;;;21.90;96.20;;;;;;5066949;28;19948;-66
2023/07/28 11:18:44;;;;;;;;;;;21.90;96.90;;;;;;5067387;28;19912;-66
2023/07/28 11:21:10;;;;;;;;;;;22.00;96.40;;;;;;5066754;28;19912;-66
2023/07/28 11:23:35;;;;;;;;;;;22.10;96.30;;;;;;5084853;28;20601;-66
2023/07/28 11:26:01;;;;;;;;;;;22.20;96.20;;;;;;5087194;28;19916;-66
2023/07/28 11:28:27;;;;;;;;;;;22.30;95.40;;;;;;5087262;28;19912;-66
2023/07/28 11:30:53;;;;;;;;;;;22.40;95.40;;;;;;5087545;28;19950;-66
2023/07/28 11:33:18;;;;;;;;;;;22.50;95.50;;;;;;5087222;28;19944;-66
2023/07/28 11:35:44;;;;;;;;;;;22.50;95.80;;;;;;5086933;28;20250;-66
2023/07/28 11:38:10;;;;;;;;;;;22.50;95.60;;;;;;5087336;28;19965;-66
2023/07/28 11:40:37;;;;;;;;;;;22.60;95.20;;;;;;5087474;28;20727;-66
2023/07/28 11:43:02;;;;;;;;;;;22.70;95.40;;;;;;5087323;28;20368;-66
2023/07/28 11:45:29;;;;;;;;;;;22.70;95.40;;;;;;5086725;28;19917;-66
2023/07/28 11:47:58;;;;;;;;;;;22.70;95.30;;;;;;5087229;28;19918;-66
2023/07/28 11:50:28;;;;;;;;;;;22.70;95.40;;;;;;5086993;28;19918;-66
2023/07/28 11:52:54;;;;;;;;;;;22.70;95.20;;;;;;5087291;28;20547;-66
2023/07/28 11:55:20;;;;;;;;;;;22.60;95.10;;;;;;5086967;28;19934;-66
2023/07/28 11:57:46;;;;;;;;;;;22.70;94.90;;;;;;5086840;28;20689;-66
2023/07/28 12:00:16;;;;;;;;;;;22.80;95.00;;;;;;5087057;28;19987;-66
2023/07/28 12:02:42;;;;;;;;;;;22.80;95.00;;;;;;5090676;28;19965;-66
2023/07/28 12:05:18;;;;;;;;;;;22.80;94.90;;;;;;5091755;28;20644;-66
2023/07/28 12:07:47;;;;;;;;;;;22.90;95.00;;;;;;5090364;28;20049;-66
2023/07/28 12:10:13;;;;;;;;;;;22.90;94.80;;;;;;5097003;28;19912;-66
2023/07/28 12:12:40;;;;;;;;;;;22.90;94.80;;;;;;5091905;28;19927;-66
2023/07/28 12:15:30;;;;;;;;;;;22.80;94.80;;;;;;5090416;28;19923;-66
2023/07/28 12:18:01;;;;;;;;;;;22.80;95.00;;;;;;5089796;28;20331;-66
2023/07/28 12:20:32;;;;;;;;;;;22.70;94.90;;;;;;5090144;28;19919;-66
2023/07/28 12:22:58;;;;;;;;;;;22.70;95.20;;;;;;5090548;28;20280;-66
2023/07/28 12:25:23;;;;;;;;;;;22.70;95.30;;;;;;5089374;28;19916;-66
2023/07/28 12:27:48;;;;;;;;;;;22.70;95.40;;;;;;5096759;28;19920;-66
2023/07/28 12:30:14;;;;;;;;;;;22.60;95.30;;;;;;5110967;28;20376;-66
2023/07/28 12:32:39;;;;;;;;;;;22.60;95.30;;;;;;5086747;28;19917;-66
2023/07/28 12:35:05;;;;;;;;;;;22.70;95.20;;;;;;5083153;28;19916;-66
2023/07/28 12:37:31;;;;;;;;;;;22.80;95.00;;;;;;5083446;28;20451;-66
2023/07/28 12:39:56;;;;;;;;;;;22.80;95.00;;;;;;5090021;28;19913;-66
2023/07/28 12:42:22;;;;;;;;;;;22.90;94.90;;;;;;5090144;28;19991;-66
2023/07/28 12:44:47;;;;;;;;;;;22.90;94.90;;;;;;5099870;28;19915;-66
2023/07/28 12:47:13;;;;;;;;;;;23.00;94.70;;;;;;5110054;28;19912;-66
2023/07/28 12:49:38;;;;;;;;;;;23.10;94.60;;;;;;5091647;28;19912;-66
2023/07/28 12:52:06;;;;;;;;;;;23.20;94.70;;;;;;5110438;28;19919;-66
2023/07/28 12:54:32;;;;;;;;;;;23.30;94.60;;;;;;5100955;28;19916;-66
2023/07/28 12:56:57;;;;;;;;;;;23.40;94.40;;;;;;5089643;28;19923;-66
2023/07/28 12:59:23;;;;;;;;;;;23.40;94.60;;;;;;5090060;28;19912;-66
2023/07/28 13:01:48;;;;;;;;;;;23.40;94.50;;;;;;5090879;28;20010;-66
2023/07/28 13:04:14;;;;;;;;;;;23.40;94.80;;;;;;5090325;28;20312;-66
2023/07/28 13:06:41;;;;;;;;;;;23.50;94.50;;;;;;5089891;28;19919;-66
2023/07/28 13:09:07;;;;;;;;;;;23.60;94.50;;;;;;5072353;28;20404;-66
2023/07/28 13:11:33;;;;;;;;;;;23.60;94.40;;;;;;5090508;28;19912;-66
2023/07/28 13:13:59;;;;;;;;;;;23.60;94.20;;;;;;5089148;28;19961;-66
2023/07/28 13:16:24;;;;;;;;;;;23.70;94.40;;;;;;5090650;28;19912;-66
2023/07/28 13:18:50;;;;;;;;;;;23.70;94.10;;;;;;5090727;28;19919;-66
2023/07/28 13:21:15;;;;;;;;;;;23.80;94.10;;;;;;5089948;28;19912;-66
2023/07/28 13:23:41;;;;;;;;;;;23.90;93.70;;;;;;5089493;28;20313;-66
2023/07/28 13:26:06;;;;;;;;;;;23.90;93.60;;;;;;5071504;28;19949;-66
2023/07/28 13:28:35;;;;;;;;;;;24.00;93.70;;;;;;5090306;28;20368;-66
2023/07/28 13:31:01;;;;;;;;;;;24.00;93.60;;;;;;5090193;28;19953;-66
2023/07/28 13:33:26;;;;;;;;;;;24.10;93.50;;;;;;5090755;28;19912;-66
2023/07/28 13:35:54;;;;;;;;;;;24.10;93.60;;;;;;5081011;28;20517;-66
2023/07/28 13:38:19;;;;;;;;;;;24.10;93.70;;;;;;5093674;28;19912;-66
2023/07/28 13:40:45;;;;;;;;;;;24.20;93.60;;;;;;5090249;28;19969;-66
2023/07/28 13:43:10;;;;;;;;;;;24.30;93.30;;;;;;5089911;28;19951;-66
2023/07/28 13:45:36;;;;;;;;;;;24.40;92.90;;;;;;5089128;28;20353;-66
2023/07/28 13:48:02;;;;;;;;;;;24.50;93.20;;;;;;5089880;28;19912;-66
2023/07/28 13:50:27;;;;;;;;;;;24.50;93.00;;;;;;5090914;28;19982;-67
2023/07/28 13:52:53;;;;;;;;;;;24.60;93.00;;;;;;5097133;28;19908;-67
2023/07/28 13:55:18;;;;;;;;;;;24.70;92.90;;;;;;5089618;28;19962;-66
2023/07/28 13:57:44;;;;;;;;;;;24.70;92.80;;;;;;5089424;28;19923;-66
2023/07/28 14:00:10;;;;;;;;;;;24.80;92.60;;;;;;5089429;28;19950;-66
2023/07/28 14:02:36;;;;;;;;;;;24.80;92.90;;;;;;5070898;28;19912;-67
2023/07/28 14:05:02;;;;;;;;;;;24.80;93.00;;;;;;5089372;28;20389;-66
2023/07/28 14:07:27;;;;;;;;;;;24.90;92.90;;;;;;5091294;28;19919;-66
2023/07/28 14:09:53;;;;;;;;;;;25.00;92.70;;;;;;5089414;28;19951;-67
2023/07/28 14:12:18;;;;;;;;;;;25.00;92.80;;;;;;5089379;28;20340;-67